Prestonwood, Texas
Current Conditions -  °F | °C
As of 2:15 AM on Friday 31 Oct 2014 (Local Time) from KADS Reporting Station
Clear Clear  
Wind Chill: 58°   Ceiling: Unl
Heat Index: 58°   Visibility: 10mi
Dew Point: 48°   Wind: 7mph
Humidity: 69%   Direction: 350°N
Pressure: 30.2"   Gusts: NA
Location:  32.9988°N, 96.7873°W
Report Text: KADS 310715Z AUTO 35006KT 10SM CLR 15/09 A3020 RMK AO2 T01460090
Loading
Personal Weather Stations






























Interactive Weather Map
Tropical Storm Tracking
New forecast layout! Learn more

10-Day Weather Forecast

Advertisements
Track Severe Weather on mobile